sensor_id;sensor_type;location;lat;lon;timestamp;temperature;humidity
9699;DHT22;10089;47.876;8.346;2024-01-10T00:01:18;-6.00;1.00
9699;DHT22;10089;47.876;8.346;2024-01-10T00:03:44;-6.30;1.00
9699;DHT22;10089;47.876;8.346;2024-01-10T00:06:10;-6.20;1.00
9699;DHT22;10089;47.876;8.346;2024-01-10T00:08:36;-6.20;1.00
9699;DHT22;10089;47.876;8.346;2024-01-10T00:11:02;-6.50;1.00
9699;DHT22;10089;47.876;8.346;2024-01-10T00:13:30;-6.30;1.00
9699;DHT22;10089;47.876;8.346;2024-01-10T00:15:56;-6.20;1.00
9699;DHT22;10089;47.876;8.346;2024-01-10T00:18:24;-6.20;1.00
9699;DHT22;10089;47.876;8.346;2024-01-10T00:20:51;-6.10;1.00
9699;DHT22;10089;47.876;8.346;2024-01-10T00:23:19;-6.20;1.00
9699;DHT22;10089;47.876;8.346;2024-01-10T00:25:45;-6.40;1.00
9699;DHT22;10089;47.876;8.346;2024-01-10T00:28:11;-6.30;1.00
9699;DHT22;10089;47.876;8.346;2024-01-10T00:30:38;-6.00;1.00
9699;DHT22;10089;47.876;8.346;2024-01-10T00:33:04;-6.20;1.00
9699;DHT22;10089;47.876;8.346;2024-01-10T00:35:30;-6.20;1.00
9699;DHT22;10089;47.876;8.346;2024-01-10T00:37:56;-6.20;1.00
9699;DHT22;10089;47.876;8.346;2024-01-10T00:40:22;-6.20;1.00
9699;DHT22;10089;47.876;8.346;2024-01-10T00:42:48;-6.20;1.00
9699;DHT22;10089;47.876;8.346;2024-01-10T00:45:14;-6.20;1.00
9699;DHT22;10089;47.876;8.346;2024-01-10T00:47:39;-6.20;1.00
9699;DHT22;10089;47.876;8.346;2024-01-10T00:50:05;-6.10;1.00
9699;DHT22;10089;47.876;8.346;2024-01-10T00:52:31;-6.10;1.00
9699;DHT22;10089;47.876;8.346;2024-01-10T00:54:57;-6.20;1.00
9699;DHT22;10089;47.876;8.346;2024-01-10T00:57:22;-5.90;1.00
9699;DHT22;10089;47.876;8.346;2024-01-10T00:59:48;-6.10;1.00
9699;DHT22;10089;47.876;8.346;2024-01-10T01:02:13;-6.10;1.00
9699;DHT22;10089;47.876;8.346;2024-01-10T01:04:39;-6.00;1.00
9699;DHT22;10089;47.876;8.346;2024-01-10T01:07:05;-6.20;1.00
9699;DHT22;10089;47.876;8.346;2024-01-10T01:09:30;-6.00;1.00
9699;DHT22;10089;47.876;8.346;2024-01-10T01:11:56;-6.30;1.00
9699;DHT22;10089;47.876;8.346;2024-01-10T01:14:21;-6.20;1.00
9699;DHT22;10089;47.876;8.346;2024-01-10T01:16:47;-6.20;1.00
9699;DHT22;10089;47.876;8.346;2024-01-10T01:19:12;-6.10;1.00
9699;DHT22;10089;47.876;8.346;2024-01-10T01:21:38;-6.10;1.00
9699;DHT22;10089;47.876;8.346;2024-01-10T01:24:04;-6.10;1.00
9699;DHT22;10089;47.876;8.346;2024-01-10T01:26:29;-6.00;1.00
9699;DHT22;10089;47.876;8.346;2024-01-10T01:28:55;-6.10;1.00
9699;DHT22;10089;47.876;8.346;2024-01-10T01:31:21;-6.10;1.00
9699;DHT22;10089;47.876;8.346;2024-01-10T01:33:46;-6.10;1.00
9699;DHT22;10089;47.876;8.346;2024-01-10T01:36:12;-6.00;1.00
9699;DHT22;10089;47.876;8.346;2024-01-10T01:38:38;-6.10;1.00
9699;DHT22;10089;47.876;8.346;2024-01-10T01:41:03;-6.00;1.00
9699;DHT22;10089;47.876;8.346;2024-01-10T01:43:31;-6.10;1.00
9699;DHT22;10089;47.876;8.346;2024-01-10T01:45:57;-6.20;1.00
9699;DHT22;10089;47.876;8.346;2024-01-10T01:48:24;-6.10;1.00
9699;DHT22;10089;47.876;8.346;2024-01-10T01:51:09;-6.10;1.00
9699;DHT22;10089;47.876;8.346;2024-01-10T01:53:36;-6.10;1.00
9699;DHT22;10089;47.876;8.346;2024-01-10T01:56:06;-6.00;1.00
9699;DHT22;10089;47.876;8.346;2024-01-10T01:58:32;-6.00;1.00
9699;DHT22;10089;47.876;8.346;2024-01-10T02:01:00;-6.00;1.00
9699;DHT22;10089;47.876;8.346;2024-01-10T02:03:26;-6.00;1.00
9699;DHT22;10089;47.876;8.346;2024-01-10T02:05:52;-6.00;1.00
9699;DHT22;10089;47.876;8.346;2024-01-10T02:08:18;-6.10;1.00
9699;DHT22;10089;47.876;8.346;2024-01-10T02:10:43;-6.10;1.00
9699;DHT22;10089;47.876;8.346;2024-01-10T02:13:09;-6.10;1.00
9699;DHT22;10089;47.876;8.346;2024-01-10T02:15:37;-6.00;1.00
9699;DHT22;10089;47.876;8.346;2024-01-10T02:18:03;-6.00;1.00
9699;DHT22;10089;47.876;8.346;2024-01-10T02:20:31;-6.00;1.00
9699;DHT22;10089;47.876;8.346;2024-01-10T02:22:58;-5.90;1.00
9699;DHT22;10089;47.876;8.346;2024-01-10T02:25:23;-6.00;1.00
9699;DHT22;10089;47.876;8.346;2024-01-10T02:27:49;-6.10;1.00
9699;DHT22;10089;47.876;8.346;2024-01-10T02:30:15;-5.80;1.00
9699;DHT22;10089;47.876;8.346;2024-01-10T02:32:40;-6.00;1.00
9699;DHT22;10089;47.876;8.346;2024-01-10T02:35:07;-6.00;1.00
9699;DHT22;10089;47.876;8.346;2024-01-10T02:37:33;-5.90;1.00
9699;DHT22;10089;47.876;8.346;2024-01-10T02:39:59;-5.90;1.00
9699;DHT22;10089;47.876;8.346;2024-01-10T02:42:25;-6.00;1.00
9699;DHT22;10089;47.876;8.346;2024-01-10T02:44:52;-5.90;1.00
9699;DHT22;10089;47.876;8.346;2024-01-10T02:47:18;-5.90;1.00
9699;DHT22;10089;47.876;8.346;2024-01-10T02:49:43;-5.90;1.00
9699;DHT22;10089;47.876;8.346;2024-01-10T02:52:09;-5.90;1.00
9699;DHT22;10089;47.876;8.346;2024-01-10T02:54:34;-5.80;1.00
9699;DHT22;10089;47.876;8.346;2024-01-10T02:57:01;-5.80;1.00
9699;DHT22;10089;47.876;8.346;2024-01-10T02:59:27;-5.90;1.00
9699;DHT22;10089;47.876;8.346;2024-01-10T03:01:52;-6.00;1.00
9699;DHT22;10089;47.876;8.346;2024-01-10T03:04:18;-6.00;1.00
9699;DHT22;10089;47.876;8.346;2024-01-10T03:06:43;-6.00;1.00
9699;DHT22;10089;47.876;8.346;2024-01-10T03:09:09;-5.80;1.00
9699;DHT22;10089;47.876;8.346;2024-01-10T03:11:35;-5.70;1.00
9699;DHT22;10089;47.876;8.346;2024-01-10T03:14:03;-5.90;1.00
9699;DHT22;10089;47.876;8.346;2024-01-10T03:16:30;-6.20;1.00
9699;DHT22;10089;47.876;8.346;2024-01-10T03:18:55;-6.30;1.00
9699;DHT22;10089;47.876;8.346;2024-01-10T03:21:21;-6.00;1.00
9699;DHT22;10089;47.876;8.346;2024-01-10T03:23:50;-6.20;1.00
9699;DHT22;10089;47.876;8.346;2024-01-10T03:26:17;-6.20;1.00
9699;DHT22;10089;47.876;8.346;2024-01-10T03:28:42;-6.10;1.00
9699;DHT22;10089;47.876;8.346;2024-01-10T03:31:10;-6.20;1.00
9699;DHT22;10089;47.876;8.346;2024-01-10T03:33:36;-6.20;1.00
9699;DHT22;10089;47.876;8.346;2024-01-10T03:36:03;-6.10;1.00
9699;DHT22;10089;47.876;8.346;2024-01-10T03:38:29;-6.10;1.00
9699;DHT22;10089;47.876;8.346;2024-01-10T03:40:54;-6.10;1.00
9699;DHT22;10089;47.876;8.346;2024-01-10T03:43:20;-6.10;1.00
9699;DHT22;10089;47.876;8.346;2024-01-10T03:45:45;-6.10;1.00
9699;DHT22;10089;47.876;8.346;2024-01-10T03:48:11;-6.00;1.00
9699;DHT22;10089;47.876;8.346;2024-01-10T03:50:37;-6.00;1.00
9699;DHT22;10089;47.876;8.346;2024-01-10T03:53:03;-5.90;1.00
9699;DHT22;10089;47.876;8.346;2024-01-10T03:55:29;-5.90;1.00
9699;DHT22;10089;47.876;8.346;2024-01-10T03:57:56;-5.70;1.00
9699;DHT22;10089;47.876;8.346;2024-01-10T04:00:22;-5.80;1.00
9699;DHT22;10089;47.876;8.346;2024-01-10T04:02:48;-5.90;1.00
9699;DHT22;10089;47.876;8.346;2024-01-10T04:05:14;-5.80;1.00
9699;DHT22;10089;47.876;8.346;2024-01-10T04:07:43;-5.80;1.00
9699;DHT22;10089;47.876;8.346;2024-01-10T04:10:12;-6.00;1.00
9699;DHT22;10089;47.876;8.346;2024-01-10T04:12:45;-5.90;1.00
9699;DHT22;10089;47.876;8.346;2024-01-10T04:15:12;-5.80;1.00
9699;DHT22;10089;47.876;8.346;2024-01-10T04:17:39;-5.90;1.00
9699;DHT22;10089;47.876;8.346;2024-01-10T04:20:05;-5.80;1.00
9699;DHT22;10089;47.876;8.346;2024-01-10T04:22:32;-5.70;1.00
9699;DHT22;10089;47.876;8.346;2024-01-10T04:24:58;-5.70;1.00
9699;DHT22;10089;47.876;8.346;2024-01-10T04:27:24;-5.80;1.00
9699;DHT22;10089;47.876;8.346;2024-01-10T04:29:49;-5.80;1.00
9699;DHT22;10089;47.876;8.346;2024-01-10T04:32:15;-5.70;1.00
9699;DHT22;10089;47.876;8.346;2024-01-10T04:34:41;-5.70;1.00
9699;DHT22;10089;47.876;8.346;2024-01-10T04:37:06;-5.70;1.00
9699;DHT22;10089;47.876;8.346;2024-01-10T04:39:33;-5.80;1.00
9699;DHT22;10089;47.876;8.346;2024-01-10T04:41:59;-5.80;1.00
9699;DHT22;10089;47.876;8.346;2024-01-10T04:44:24;-5.90;1.00
9699;DHT22;10089;47.876;8.346;2024-01-10T04:46:50;-6.00;1.00
9699;DHT22;10089;47.876;8.346;2024-01-10T04:49:16;-6.10;1.00
9699;DHT22;10089;47.876;8.346;2024-01-10T04:51:41;-6.10;1.00
9699;DHT22;10089;47.876;8.346;2024-01-10T04:54:08;-6.10;1.00
9699;DHT22;10089;47.876;8.346;2024-01-10T04:56:34;-6.10;1.00
9699;DHT22;10089;47.876;8.346;2024-01-10T04:59:02;-6.00;1.00
9699;DHT22;10089;47.876;8.346;2024-01-10T05:01:27;-6.00;1.00
9699;DHT22;10089;47.876;8.346;2024-01-10T05:03:53;-6.00;1.00
9699;DHT22;10089;47.876;8.346;2024-01-10T05:06:18;-6.10;1.00
9699;DHT22;10089;47.876;8.346;2024-01-10T05:08:44;-6.10;1.00
9699;DHT22;10089;47.876;8.346;2024-01-10T05:11:09;-6.10;1.00
9699;DHT22;10089;47.876;8.346;2024-01-10T05:13:35;-5.90;1.00
9699;DHT22;10089;47.876;8.346;2024-01-10T05:16:01;-6.10;1.00
9699;DHT22;10089;47.876;8.346;2024-01-10T05:18:26;-6.20;1.00
9699;DHT22;10089;47.876;8.346;2024-01-10T05:20:52;-6.20;1.00
9699;DHT22;10089;47.876;8.346;2024-01-10T05:23:18;-6.30;1.00
9699;DHT22;10089;47.876;8.346;2024-01-10T05:25:43;-6.40;1.00
9699;DHT22;10089;47.876;8.346;2024-01-10T05:28:09;-6.50;1.00
9699;DHT22;10089;47.876;8.346;2024-01-10T05:30:40;-6.90;1.00
9699;DHT22;10089;47.876;8.346;2024-01-10T05:33:08;-7.00;1.00
9699;DHT22;10089;47.876;8.346;2024-01-10T05:35:34;-7.20;1.00
9699;DHT22;10089;47.876;8.346;2024-01-10T05:38:01;-6.90;1.00
9699;DHT22;10089;47.876;8.346;2024-01-10T05:40:28;-6.50;1.00
9699;DHT22;10089;47.876;8.346;2024-01-10T05:42:55;-7.10;1.00
9699;DHT22;10089;47.876;8.346;2024-01-10T05:45:21;-7.20;1.00
9699;DHT22;10089;47.876;8.346;2024-01-10T05:47:46;-7.10;1.00
9699;DHT22;10089;47.876;8.346;2024-01-10T05:50:13;-6.90;1.00
9699;DHT22;10089;47.876;8.346;2024-01-10T05:52:39;-7.00;3.50
9699;DHT22;10089;47.876;8.346;2024-01-10T05:55:06;-7.10;1.00
9699;DHT22;10089;47.876;8.346;2024-01-10T05:57:34;-7.10;1.00
9699;DHT22;10089;47.876;8.346;2024-01-10T06:00:00;-6.70;1.00
9699;DHT22;10089;47.876;8.346;2024-01-10T06:02:26;-6.40;4.70
9699;DHT22;10089;47.876;8.346;2024-01-10T06:04:52;-6.10;15.20
9699;DHT22;10089;47.876;8.346;2024-01-10T06:07:18;-7.10;6.80
9699;DHT22;10089;47.876;8.346;2024-01-10T06:09:44;-6.00;19.60
9699;DHT22;10089;47.876;8.346;2024-01-10T06:12:09;-6.90;20.60
9699;DHT22;10089;47.876;8.346;2024-01-10T06:14:35;-6.90;50.70
9699;DHT22;10089;47.876;8.346;2024-01-10T06:17:01;-6.10;22.40
9699;DHT22;10089;47.876;8.346;2024-01-10T06:19:31;-6.80;32.70
9699;DHT22;10089;47.876;8.346;2024-01-10T06:21:58;-6.80;32.20
9699;DHT22;10089;47.876;8.346;2024-01-10T06:24:23;-6.70;24.60
9699;DHT22;10089;47.876;8.346;2024-01-10T06:26:49;-6.20;9.70
9699;DHT22;10089;47.876;8.346;2024-01-10T06:29:15;-6.40;20.60
9699;DHT22;10089;47.876;8.346;2024-01-10T06:31:41;-6.50;38.30
9699;DHT22;10089;47.876;8.346;2024-01-10T06:34:08;-6.50;30.20
9699;DHT22;10089;47.876;8.346;2024-01-10T06:36:34;-5.90;24.40
9699;DHT22;10089;47.876;8.346;2024-01-10T06:39:00;-6.30;29.10
9699;DHT22;10089;47.876;8.346;2024-01-10T06:41:25;-6.20;28.30
9699;DHT22;10089;47.876;8.346;2024-01-10T06:43:51;-6.10;15.60
9699;DHT22;10089;47.876;8.346;2024-01-10T06:46:17;-6.10;1.00
9699;DHT22;10089;47.876;8.346;2024-01-10T06:48:43;-6.20;1.00
9699;DHT22;10089;47.876;8.346;2024-01-10T06:51:16;-5.80;1.00
9699;DHT22;10089;47.876;8.346;2024-01-10T06:53:42;-6.30;1.00
9699;DHT22;10089;47.876;8.346;2024-01-10T06:56:07;-6.30;1.00
9699;DHT22;10089;47.876;8.346;2024-01-10T06:58:35;-6.30;1.00
9699;DHT22;10089;47.876;8.346;2024-01-10T07:01:01;-6.30;1.00
9699;DHT22;10089;47.876;8.346;2024-01-10T07:03:27;-6.30;1.00
9699;DHT22;10089;47.876;8.346;2024-01-10T07:05:52;-6.30;1.00
9699;DHT22;10089;47.876;8.346;2024-01-10T07:08:18;-6.40;1.00
9699;DHT22;10089;47.876;8.346;2024-01-10T07:10:44;-6.30;1.00
9699;DHT22;10089;47.876;8.346;2024-01-10T07:13:10;-6.40;1.00
9699;DHT22;10089;47.876;8.346;2024-01-10T07:15:36;-6.40;1.00
9699;DHT22;10089;47.876;8.346;2024-01-10T07:18:02;-6.30;1.00
9699;DHT22;10089;47.876;8.346;2024-01-10T07:20:28;-6.20;1.00
9699;DHT22;10089;47.876;8.346;2024-01-10T07:22:53;-6.00;1.00
9699;DHT22;10089;47.876;8.346;2024-01-10T07:25:20;-6.20;1.00
9699;DHT22;10089;47.876;8.346;2024-01-10T07:27:47;-6.20;1.00
9699;DHT22;10089;47.876;8.346;2024-01-10T07:30:13;-6.10;1.00
9699;DHT22;10089;47.876;8.346;2024-01-10T07:32:45;-5.70;1.00
9699;DHT22;10089;47.876;8.346;2024-01-10T07:35:12;-6.10;1.00
9699;DHT22;10089;47.876;8.346;2024-01-10T07:37:40;-6.10;1.00
9699;DHT22;10089;47.876;8.346;2024-01-10T07:40:07;-6.00;1.00
9699;DHT22;10089;47.876;8.346;2024-01-10T07:42:42;-6.00;1.00
9699;DHT22;10089;47.876;8.346;2024-01-10T07:45:08;-6.00;1.00
9699;DHT22;10089;47.876;8.346;2024-01-10T07:47:35;-5.80;1.10
9699;DHT22;10089;47.876;8.346;2024-01-10T07:50:12;-5.80;5.40
9699;DHT22;10089;47.876;8.346;2024-01-10T07:52:41;-5.80;12.20
9699;DHT22;10089;47.876;8.346;2024-01-10T07:55:07;-5.70;27.20
9699;DHT22;10089;47.876;8.346;2024-01-10T07:57:35;-5.60;31.00
9699;DHT22;10089;47.876;8.346;2024-01-10T08:00:02;-5.60;48.90
9699;DHT22;10089;47.876;8.346;2024-01-10T08:02:29;-5.50;54.00
9699;DHT22;10089;47.876;8.346;2024-01-10T08:05:02;-5.40;55.20
9699;DHT22;10089;47.876;8.346;2024-01-10T08:07:37;-5.40;74.10
9699;DHT22;10089;47.876;8.346;2024-01-10T08:10:07;-5.30;78.60
9699;DHT22;10089;47.876;8.346;2024-01-10T08:12:34;-5.10;94.10
9699;DHT22;10089;47.876;8.346;2024-01-10T08:15:00;-5.00;99.10
9699;DHT22;10089;47.876;8.346;2024-01-10T08:17:26;-5.00;72.50
9699;DHT22;10089;47.876;8.346;2024-01-10T08:19:51;-5.00;1.00
9699;DHT22;10089;47.876;8.346;2024-01-10T08:22:20;-5.20;1.00
9699;DHT22;10089;47.876;8.346;2024-01-10T08:24:46;-5.20;1.00
9699;DHT22;10089;47.876;8.346;2024-01-10T08:27:12;-5.40;1.00
9699;DHT22;10089;47.876;8.346;2024-01-10T08:29:38;-5.30;1.00
9699;DHT22;10089;47.876;8.346;2024-01-10T08:32:03;-5.40;1.00
9699;DHT22;10089;47.876;8.346;2024-01-10T08:34:29;-5.70;24.80
9699;DHT22;10089;47.876;8.346;2024-01-10T08:36:55;-5.70;71.30
9699;DHT22;10089;47.876;8.346;2024-01-10T08:39:20;-5.60;88.10
9699;DHT22;10089;47.876;8.346;2024-01-10T08:41:47;-5.40;99.90
9699;DHT22;10089;47.876;8.346;2024-01-10T08:44:13;-5.40;77.60
9699;DHT22;10089;47.876;8.346;2024-01-10T08:46:39;-5.20;42.10
9699;DHT22;10089;47.876;8.346;2024-01-10T08:49:05;-5.00;25.00
9699;DHT22;10089;47.876;8.346;2024-01-10T08:51:31;-4.80;2.60
9699;DHT22;10089;47.876;8.346;2024-01-10T08:53:57;-4.50;1.00
9699;DHT22;10089;47.876;8.346;2024-01-10T08:56:23;-4.10;40.80
9699;DHT22;10089;47.876;8.346;2024-01-10T08:58:49;-3.80;1.00
9699;DHT22;10089;47.876;8.346;2024-01-10T09:01:16;-3.60;1.00
9699;DHT22;10089;47.876;8.346;2024-01-10T09:03:42;-3.40;1.00
9699;DHT22;10089;47.876;8.346;2024-01-10T09:06:07;-3.60;1.00
9699;DHT22;10089;47.876;8.346;2024-01-10T09:08:34;-3.60;1.00
9699;DHT22;10089;47.876;8.346;2024-01-10T09:11:00;-3.60;1.00
9699;DHT22;10089;47.876;8.346;2024-01-10T09:13:25;-3.50;1.00
9699;DHT22;10089;47.876;8.346;2024-01-10T09:15:51;-3.50;1.00
9699;DHT22;10089;47.876;8.346;2024-01-10T09:18:16;-3.50;1.00
9699;DHT22;10089;47.876;8.346;2024-01-10T09:20:42;-3.60;1.00
9699;DHT22;10089;47.876;8.346;2024-01-10T09:23:08;-3.50;1.00
9699;DHT22;10089;47.876;8.346;2024-01-10T09:25:34;-3.40;1.00
9699;DHT22;10089;47.876;8.346;2024-01-10T09:28:00;-3.50;1.00
9699;DHT22;10089;47.876;8.346;2024-01-10T09:30:26;-3.60;1.00
9699;DHT22;10089;47.876;8.346;2024-01-10T09:32:51;-3.50;1.00
9699;DHT22;10089;47.876;8.346;2024-01-10T09:35:17;-3.50;1.00
9699;DHT22;10089;47.876;8.346;2024-01-10T09:37:43;-3.50;1.00
9699;DHT22;10089;47.876;8.346;2024-01-10T09:40:14;-3.40;1.00
9699;DHT22;10089;47.876;8.346;2024-01-10T09:42:40;-3.30;1.00
9699;DHT22;10089;47.876;8.346;2024-01-10T09:45:06;-3.30;1.00
9699;DHT22;10089;47.876;8.346;2024-01-10T09:47:35;-3.20;1.00
9699;DHT22;10089;47.876;8.346;2024-01-10T09:50:01;-3.10;1.00
9699;DHT22;10089;47.876;8.346;2024-01-10T09:52:33;-2.10;99.90
9699;DHT22;10089;47.876;8.346;2024-01-10T09:55:00;-3.00;99.90
9699;DHT22;10089;47.876;8.346;2024-01-10T09:57:26;-2.90;99.90
9699;DHT22;10089;47.876;8.346;2024-01-10T09:59:53;-2.80;99.90
9699;DHT22;10089;47.876;8.346;2024-01-10T10:02:20;-2.70;99.90
9699;DHT22;10089;47.876;8.346;2024-01-10T10:04:56;-2.70;99.90
9699;DHT22;10089;47.876;8.346;2024-01-10T10:07:25;-2.70;1.00
9699;DHT22;10089;47.876;8.346;2024-01-10T10:09:51;-2.50;1.00
9699;DHT22;10089;47.876;8.346;2024-01-10T10:12:18;-2.40;1.00
9699;DHT22;10089;47.876;8.346;2024-01-10T10:14:44;-2.40;1.00
9699;DHT22;10089;47.876;8.346;2024-01-10T10:17:14;-2.30;1.00
9699;DHT22;10089;47.876;8.346;2024-01-10T10:19:40;-2.20;1.00
9699;DHT22;10089;47.876;8.346;2024-01-10T10:22:12;-2.20;1.00
9699;DHT22;10089;47.876;8.346;2024-01-10T10:24:39;-2.20;1.00
9699;DHT22;10089;47.876;8.346;2024-01-10T10:27:11;-2.20;1.00
9699;DHT22;10089;47.876;8.346;2024-01-10T10:29:38;-1.90;1.00
9699;DHT22;10089;47.876;8.346;2024-01-10T10:32:05;-1.50;1.00
9699;DHT22;10089;47.876;8.346;2024-01-10T10:34:31;-1.00;1.00
9699;DHT22;10089;47.876;8.346;2024-01-10T10:37:01;-0.90;99.90
9699;DHT22;10089;47.876;8.346;2024-01-10T10:39:28;-0.70;99.90
9699;DHT22;10089;47.876;8.346;2024-01-10T10:41:53;-0.70;99.90
9699;DHT22;10089;47.876;8.346;2024-01-10T10:44:23;-0.70;99.90
9699;DHT22;10089;47.876;8.346;2024-01-10T10:47:04;-0.70;99.90
9699;DHT22;10089;47.876;8.346;2024-01-10T10:49:31;-0.70;99.90
9699;DHT22;10089;47.876;8.346;2024-01-10T10:52:00;-0.70;99.90
9699;DHT22;10089;47.876;8.346;2024-01-10T10:54:28;-0.70;99.90
9699;DHT22;10089;47.876;8.346;2024-01-10T10:56:59;-0.60;1.00
9699;DHT22;10089;47.876;8.346;2024-01-10T10:59:29;-0.60;1.00
9699;DHT22;10089;47.876;8.346;2024-01-10T11:01:58;-0.60;1.00
9699;DHT22;10089;47.876;8.346;2024-01-10T11:04:24;-0.40;1.00
9699;DHT22;10089;47.876;8.346;2024-01-10T11:06:50;-0.20;1.00
9699;DHT22;10089;47.876;8.346;2024-01-10T11:09:18;0.00;1.00
9699;DHT22;10089;47.876;8.346;2024-01-10T11:11:57;0.30;1.00
9699;DHT22;10089;47.876;8.346;2024-01-10T11:15:04;0.50;1.00
9699;DHT22;10089;47.876;8.346;2024-01-10T11:17:43;0.70;99.90
9699;DHT22;10089;47.876;8.346;2024-01-10T11:22:56;1.20;99.90
9699;DHT22;10089;47.876;8.346;2024-01-10T11:25:26;1.30;99.90
9699;DHT22;10089;47.876;8.346;2024-01-10T11:27:55;1.20;99.90
9699;DHT22;10089;47.876;8.346;2024-01-10T11:30:50;1.40;99.90
9699;DHT22;10089;47.876;8.346;2024-01-10T11:33:24;1.50;99.90
9699;DHT22;10089;47.876;8.346;2024-01-10T11:36:11;1.10;99.90
9699;DHT22;10089;47.876;8.346;2024-01-10T11:38:45;1.30;1.00
9699;DHT22;10089;47.876;8.346;2024-01-10T11:46:46;2.10;99.90
9699;DHT22;10089;47.876;8.346;2024-01-10T11:49:14;2.10;89.70
9699;DHT22;10089;47.876;8.346;2024-01-10T11:51:48;2.20;99.90
9699;DHT22;10089;47.876;8.346;2024-01-10T11:54:39;2.30;1.00
9699;DHT22;10089;47.876;8.346;2024-01-10T11:57:20;2.10;1.00
9699;DHT22;10089;47.876;8.346;2024-01-10T11:59:48;2.00;67.10
9699;DHT22;10089;47.876;8.346;2024-01-10T12:02:15;1.90;52.50
9699;DHT22;10089;47.876;8.346;2024-01-10T12:04:41;1.80;99.90
9699;DHT22;10089;47.876;8.346;2024-01-10T12:07:11;1.90;99.90
9699;DHT22;10089;47.876;8.346;2024-01-10T12:09:38;1.50;99.90
9699;DHT22;10089;47.876;8.346;2024-01-10T12:12:04;1.40;1.00
9699;DHT22;10089;47.876;8.346;2024-01-10T12:14:31;1.50;1.00
9699;DHT22;10089;47.876;8.346;2024-01-10T12:16:58;1.50;1.00
9699;DHT22;10089;47.876;8.346;2024-01-10T12:19:24;1.50;1.00
9699;DHT22;10089;47.876;8.346;2024-01-10T12:21:50;1.30;1.00
9699;DHT22;10089;47.876;8.346;2024-01-10T12:24:15;0.90;1.00
9699;DHT22;10089;47.876;8.346;2024-01-10T12:26:48;1.20;1.00
9699;DHT22;10089;47.876;8.346;2024-01-10T12:29:17;1.40;1.00
9699;DHT22;10089;47.876;8.346;2024-01-10T12:31:43;1.80;1.00
9699;DHT22;10089;47.876;8.346;2024-01-10T12:34:11;2.00;99.90
9699;DHT22;10089;47.876;8.346;2024-01-10T12:36:37;1.90;99.90
9699;DHT22;10089;47.876;8.346;2024-01-10T12:39:03;1.90;99.90
9699;DHT22;10089;47.876;8.346;2024-01-10T12:41:44;1.80;99.90
9699;DHT22;10089;47.876;8.346;2024-01-10T12:44:12;1.90;99.90
9699;DHT22;10089;47.876;8.346;2024-01-10T12:46:49;1.70;99.90
9699;DHT22;10089;47.876;8.346;2024-01-10T12:49:17;1.60;99.90
9699;DHT22;10089;47.876;8.346;2024-01-10T12:51:42;1.60;1.00
9699;DHT22;10089;47.876;8.346;2024-01-10T12:54:09;1.60;1.00
9699;DHT22;10089;47.876;8.346;2024-01-10T12:56:34;1.60;1.00
9699;DHT22;10089;47.876;8.346;2024-01-10T12:59:00;1.50;1.00
9699;DHT22;10089;47.876;8.346;2024-01-10T13:01:31;1.40;1.00
9699;DHT22;10089;47.876;8.346;2024-01-10T13:03:57;1.40;1.00
9699;DHT22;10089;47.876;8.346;2024-01-10T13:06:23;1.40;1.00
9699;DHT22;10089;47.876;8.346;2024-01-10T13:08:49;1.20;1.00
9699;DHT22;10089;47.876;8.346;2024-01-10T13:11:15;1.10;1.00
9699;DHT22;10089;47.876;8.346;2024-01-10T13:13:41;0.90;1.00
9699;DHT22;10089;47.876;8.346;2024-01-10T13:16:08;0.80;1.00
9699;DHT22;10089;47.876;8.346;2024-01-10T13:18:37;0.80;1.00
9699;DHT22;10089;47.876;8.346;2024-01-10T13:21:03;0.60;1.00
9699;DHT22;10089;47.876;8.346;2024-01-10T13:23:28;0.60;1.00
9699;DHT22;10089;47.876;8.346;2024-01-10T13:25:54;0.60;1.00
9699;DHT22;10089;47.876;8.346;2024-01-10T13:28:19;0.50;1.00
9699;DHT22;10089;47.876;8.346;2024-01-10T13:30:48;0.40;1.00
9699;DHT22;10089;47.876;8.346;2024-01-10T13:33:18;0.60;1.00
9699;DHT22;10089;47.876;8.346;2024-01-10T13:35:49;0.40;1.00
9699;DHT22;10089;47.876;8.346;2024-01-10T13:38:17;0.40;10.60
9699;DHT22;10089;47.876;8.346;2024-01-10T13:40:43;0.40;7.80
9699;DHT22;10089;47.876;8.346;2024-01-10T13:43:09;0.40;1.00
9699;DHT22;10089;47.876;8.346;2024-01-10T13:45:34;0.40;1.00
9699;DHT22;10089;47.876;8.346;2024-01-10T13:48:00;0.40;1.00
9699;DHT22;10089;47.876;8.346;2024-01-10T13:50:25;0.40;1.00
9699;DHT22;10089;47.876;8.346;2024-01-10T13:52:52;0.40;1.00
9699;DHT22;10089;47.876;8.346;2024-01-10T13:55:19;0.40;32.10
9699;DHT22;10089;47.876;8.346;2024-01-10T13:57:45;0.40;42.90
9699;DHT22;10089;47.876;8.346;2024-01-10T14:00:11;0.50;34.20
9699;DHT22;10089;47.876;8.346;2024-01-10T14:02:43;0.50;22.20
9699;DHT22;10089;47.876;8.346;2024-01-10T14:05:09;0.50;42.90
9699;DHT22;10089;47.876;8.346;2024-01-10T14:07:35;0.50;37.80
9699;DHT22;10089;47.876;8.346;2024-01-10T14:10:01;0.40;10.20
9699;DHT22;10089;47.876;8.346;2024-01-10T14:12:28;0.50;22.30
9699;DHT22;10089;47.876;8.346;2024-01-10T14:14:54;0.50;43.60
9699;DHT22;10089;47.876;8.346;2024-01-10T14:17:21;0.50;62.70
9699;DHT22;10089;47.876;8.346;2024-01-10T14:19:47;0.50;46.40
9699;DHT22;10089;47.876;8.346;2024-01-10T14:22:15;0.50;35.40
9699;DHT22;10089;47.876;8.346;2024-01-10T14:24:43;0.40;51.30
9699;DHT22;10089;47.876;8.346;2024-01-10T14:27:08;0.50;93.50
9699;DHT22;10089;47.876;8.346;2024-01-10T14:29:34;0.40;51.50
9699;DHT22;10089;47.876;8.346;2024-01-10T14:32:00;0.50;53.90
9699;DHT22;10089;47.876;8.346;2024-01-10T14:34:25;0.40;59.00
9699;DHT22;10089;47.876;8.346;2024-01-10T14:36:51;0.50;47.80
9699;DHT22;10089;47.876;8.346;2024-01-10T14:39:17;0.50;76.40
9699;DHT22;10089;47.876;8.346;2024-01-10T14:41:43;0.60;99.90
9699;DHT22;10089;47.876;8.346;2024-01-10T14:44:10;0.70;99.90
9699;DHT22;10089;47.876;8.346;2024-01-10T14:46:35;0.70;99.90
9699;DHT22;10089;47.876;8.346;2024-01-10T14:49:01;0.70;95.10
9699;DHT22;10089;47.876;8.346;2024-01-10T14:51:28;0.60;99.90
9699;DHT22;10089;47.876;8.346;2024-01-10T14:53:55;0.60;99.90
9699;DHT22;10089;47.876;8.346;2024-01-10T14:56:21;0.50;99.90
9699;DHT22;10089;47.876;8.346;2024-01-10T14:58:48;0.50;99.90
9699;DHT22;10089;47.876;8.346;2024-01-10T15:01:16;0.40;99.90
9699;DHT22;10089;47.876;8.346;2024-01-10T15:03:45;0.30;99.90
9699;DHT22;10089;47.876;8.346;2024-01-10T15:06:10;0.30;99.90
9699;DHT22;10089;47.876;8.346;2024-01-10T15:08:36;0.20;99.90
9699;DHT22;10089;47.876;8.346;2024-01-10T15:11:03;0.10;99.90
9699;DHT22;10089;47.876;8.346;2024-01-10T15:13:28;0.10;99.90
9699;DHT22;10089;47.876;8.346;2024-01-10T15:15:54;0.10;99.90
9699;DHT22;10089;47.876;8.346;2024-01-10T15:18:20;0.10;99.90
9699;DHT22;10089;47.876;8.346;2024-01-10T15:20:46;0.00;99.90
9699;DHT22;10089;47.876;8.346;2024-01-10T15:23:13;0.00;99.90
9699;DHT22;10089;47.876;8.346;2024-01-10T15:25:39;-0.10;99.90
9699;DHT22;10089;47.876;8.346;2024-01-10T15:28:05;-0.20;99.90
9699;DHT22;10089;47.876;8.346;2024-01-10T15:30:31;-0.20;99.90
9699;DHT22;10089;47.876;8.346;2024-01-10T15:32:59;-0.30;99.90
9699;DHT22;10089;47.876;8.346;2024-01-10T15:35:25;-0.40;99.90
9699;DHT22;10089;47.876;8.346;2024-01-10T15:37:51;-0.40;99.90
9699;DHT22;10089;47.876;8.346;2024-01-10T15:40:18;-0.50;99.90
9699;DHT22;10089;47.876;8.346;2024-01-10T15:42:44;-0.50;99.90
9699;DHT22;10089;47.876;8.346;2024-01-10T15:45:13;-0.60;99.90
9699;DHT22;10089;47.876;8.346;2024-01-10T15:47:40;-0.70;99.90
9699;DHT22;10089;47.876;8.346;2024-01-10T15:50:06;-0.80;99.90
9699;DHT22;10089;47.876;8.346;2024-01-10T15:52:33;-0.90;99.90
9699;DHT22;10089;47.876;8.346;2024-01-10T15:55:00;-0.90;99.90
9699;DHT22;10089;47.876;8.346;2024-01-10T15:57:29;-1.00;99.90
9699;DHT22;10089;47.876;8.346;2024-01-10T16:00:01;-1.10;99.90
9699;DHT22;10089;47.876;8.346;2024-01-10T16:02:29;-1.10;99.90
9699;DHT22;10089;47.876;8.346;2024-01-10T16:04:56;-1.10;99.90
9699;DHT22;10089;47.876;8.346;2024-01-10T16:07:23;-1.10;99.90